Home PIREPS Pireps

Flight BEL2095

  • Submitted By: Patrick Lanckmans
  • Departure Airport: Bruxelles National (EBBR)
  • Arrival Airport: Heathrow (EGLL)
  • Aircraft: BAE AVRO RJ1 (OO-DWD)
  • Flight Time: 00.59
  • Date Submitted: 09/02/2018
  • Status: Accepted
Flight Details
Gross Revenue:
(76 load / € 47.00 per unit
€ 3,572.00
Fuel Cost:
(2167 fuel used @ 5.1 / unit)
€ 11,051.70

Additional Log Information:

View Log

Aircraft Used in flight is QWSim Avro RJ100 - Brussels Airlines - Config: S
16:17 Brakes are On
16:19 Brakes are Released
16:24 Brakes are On
16:25 Brakes are Released
16:26 Brakes are On
16:27 Brakes are Released
16:27 You Took off @ 162 Knots and Flaps at Position 1
Departure Weather
EBBR 091450Z 18011KT 3500 -SN BKN013 00/M02 Q1010 TEMPO 2500 -SNrn
16:27 Landing Gear Up @ 161 Knots and 480 Feet
16:33 Paused
16:33 Unpaused
17:02 Below 10000 feet you are not allowed to go over 250 knots
17:07 Landing Gear Down @ 215 Knots and 3000 Feet
17:11 You Landed @ 116 Knots and with -200 Vertical Speed
Arrival Weather
EGLL 091550Z AUTO 31010G21KT 280V350 9999 BKN043 06/M02 Q1012 NOSIGrn
17:14 Brakes are On
17:16 Brussels Bel-Track1.0.1.2

Route Map

Corporate About Us Our Team Vacancies Information Fleet Route Network Rules and Regulations Operations Flight Schedules Event Center Tours Partners IVAO Vatsim Acars dev FSCB

fb Users Online Belgium Marc Claus, Belgium Serge Van Laethem,
5 Pilot(s) and 168 Guest(s) Online
CMS by phpVMS - Design by Crazycreatives.com - Copyright © 2018 - Brussels Airlines Virtual